Time;durP1;ratioP1;P1;durP2;ratioP2;P2;SDS_P1;SDS_P2;PMS_P1;PMS_P2;Temp;Humidity;BMP_temperature;BMP_pressure;BME280_temperature;BME280_humidity;BME280_pressure;Samples;Min_cycle;Max_cycle;Signal;HPM_P1;HPM_P2
2024/01/04 00:01:17;;;;;;;76.70;31.60;;;;;;;4.13;61.77;98013.89;108239;1254;69415;-65
2024/01/04 00:03:44;;;;;;;79.90;35.30;;;;;;;4.08;61.98;98012.36;108207;1257;71696;-67
2024/01/04 00:06:12;;;;;;;76.40;32.60;;;;;;;4.08;62.02;98011.13;108088;1253;60405;-67
2024/01/04 00:08:40;;;;;;;85.90;36.80;;;;;;;4.18;61.73;98003.06;108191;1254;59498;-67
2024/01/04 00:11:07;;;;;;;78.70;35.20;;;;;;;4.24;61.50;98001.41;108236;1253;73752;-66
2024/01/04 00:13:35;;;;;;;83.90;35.20;;;;;;;4.25;61.63;97997.87;108204;1254;69998;-66
2024/01/04 00:16:07;;;;;;;77.80;35.10;;;;;;;4.23;61.77;97994.11;108200;1254;72661;-66
2024/01/04 00:18:35;;;;;;;68.20;29.40;;;;;;;4.29;61.74;97997.52;108160;1254;61602;-67
2024/01/04 00:21:03;;;;;;;68.30;30.20;;;;;;;4.43;61.60;97998.25;108125;1253;60251;-62
2024/01/04 00:23:35;;;;;;;66.00;30.70;;;;;;;4.54;61.29;97992.88;108209;1254;73831;-66
2024/01/04 00:26:03;;;;;;;74.00;31.60;;;;;;;4.56;61.51;97988.12;108154;1253;69516;-63
2024/01/04 00:28:30;;;;;;;77.90;31.80;;;;;;;4.58;61.46;97987.98;108156;1254;71781;-66
2024/01/04 00:30:58;;;;;;;79.80;32.10;;;;;;;4.62;61.36;97983.63;108193;1251;60851;-67
2024/01/04 00:33:26;;;;;;;97.80;39.60;;;;;;;4.69;61.24;97980.00;108285;1256;59024;-65
2024/01/04 00:35:54;;;;;;;83.70;36.40;;;;;;;4.71;61.39;97980.45;108315;1251;73901;-65
2024/01/04 00:38:21;;;;;;;86.40;36.40;;;;;;;4.75;61.16;97976.59;108247;1251;69994;-66
2024/01/04 00:40:49;;;;;;;88.90;37.60;;;;;;;4.66;61.37;97983.64;108300;1253;72929;-67
2024/01/04 00:43:16;;;;;;;87.90;39.00;;;;;;;4.66;61.68;97977.36;108309;1251;61279;-67
2024/01/04 00:45:44;;;;;;;88.80;39.10;;;;;;;4.58;61.73;97984.88;108267;1251;60317;-67
2024/01/04 00:48:12;;;;;;;87.80;35.60;;;;;;;4.59;61.85;97974.20;108277;1251;74078;-67
2024/01/04 00:50:42;;;;;;;87.70;36.90;;;;;;;4.51;62.27;97987.64;108409;1251;69102;-66
2024/01/04 00:53:10;;;;;;;80.60;35.10;;;;;;;4.51;62.31;97984.15;108287;1251;71112;-67
2024/01/04 00:55:37;;;;;;;89.00;37.00;;;;;;;4.64;62.12;97979.02;108263;1254;60100;-67
2024/01/04 00:58:05;;;;;;;89.20;37.80;;;;;;;4.69;61.98;97990.95;108396;1251;60097;-68
2024/01/04 01:00:33;;;;;;;99.40;41.70;;;;;;;4.77;61.75;97994.40;108364;1251;72637;-67
2024/01/04 01:03:01;;;;;;;87.90;37.90;;;;;;;4.81;61.79;97985.52;108422;1251;71337;-67
2024/01/04 01:05:28;;;;;;;90.40;36.90;;;;;;;4.82;61.96;97990.52;108413;1251;71964;-66
2024/01/04 01:07:56;;;;;;;91.40;40.40;;;;;;;4.79;62.11;97986.15;108438;1251;60913;-67
2024/01/04 01:10:23;;;;;;;89.50;37.60;;;;;;;4.80;62.04;97984.34;108368;1251;60036;-68
2024/01/04 01:12:51;;;;;;;102.80;44.20;;;;;;;4.95;61.83;97983.45;108252;1251;74317;-67
2024/01/04 01:15:18;;;;;;;103.80;44.30;;;;;;;5.07;61.56;97988.60;108224;1251;69460;-65
2024/01/04 01:17:46;;;;;;;93.70;40.80;;;;;;;5.03;61.60;97986.37;108184;1251;72666;-64
2024/01/04 01:20:14;;;;;;;98.60;43.10;;;;;;;4.98;61.77;97987.68;108277;1254;60590;-67
2024/01/04 01:22:41;;;;;;;93.30;39.50;;;;;;;4.94;61.77;97985.11;108364;1251;58984;-66
2024/01/04 01:25:08;;;;;;;103.70;44.90;;;;;;;4.98;61.69;97984.21;108331;1251;73845;-66
2024/01/04 01:27:36;;;;;;;102.70;45.40;;;;;;;5.00;61.64;97976.64;108271;1251;69130;-65
2024/01/04 01:30:06;;;;;;;101.50;44.50;;;;;;;4.95;61.47;97976.53;108271;1251;72849;-68
2024/01/04 01:32:33;;;;;;;93.30;40.80;;;;;;;4.96;61.33;97982.88;108192;1253;59569;-67
2024/01/04 01:35:01;;;;;;;114.10;48.60;;;;;;;4.99;61.05;97978.07;108242;1254;60243;-65
2024/01/04 01:37:28;;;;;;;112.20;47.80;;;;;;;4.85;61.63;97985.00;108161;1254;72296;-65
2024/01/04 01:39:56;;;;;;;106.90;46.10;;;;;;;4.80;61.54;97989.20;108100;1253;70460;-66
2024/01/04 01:42:23;;;;;;;118.40;47.30;;;;;;;4.83;61.70;97988.40;108132;1253;72641;-67
2024/01/04 01:44:51;;;;;;;117.10;46.40;;;;;;;4.71;62.09;97983.20;108139;1256;60887;-67
2024/01/04 01:47:19;;;;;;;117.00;45.90;;;;;;;4.72;61.97;97985.58;108273;1253;60476;-66
2024/01/04 01:49:46;;;;;;;109.20;44.70;;;;;;;4.77;61.81;97983.63;108171;1254;72378;-68
2024/01/04 01:52:14;;;;;;;132.50;50.90;;;;;;;4.78;61.59;97988.45;108052;1254;70121;-68
2024/01/04 01:54:42;;;;;;;129.20;47.60;;;;;;;4.87;61.38;97992.37;108163;1254;72453;-67
2024/01/04 01:57:09;;;;;;;125.10;49.90;;;;;;;4.89;61.29;97990.88;108045;1254;60858;-66
2024/01/04 01:59:37;;;;;;;144.40;53.50;;;;;;;4.90;61.08;97997.09;107896;1252;60186;-67
2024/01/04 02:02:04;;;;;;;129.40;51.90;;;;;;;4.81;61.22;97997.71;107946;1253;72736;-64
2024/01/04 02:04:32;;;;;;;136.90;55.00;;;;;;;4.85;61.34;98001.47;108107;1253;67886;-66
2024/01/04 02:06:59;;;;;;;134.20;51.80;;;;;;;4.94;61.14;98002.32;108132;1254;72657;-65
2024/01/04 02:09:27;;;;;;;118.60;47.60;;;;;;;4.93;60.94;98004.77;108091;1254;60447;-67
2024/01/04 02:12:04;;;;;;;125.90;45.50;;;;;;;4.96;61.05;98005.14;108136;1254;60322;-68
2024/01/04 02:14:33;;;;;;;107.40;42.40;;;;;;;5.00;60.77;98009.65;108235;1254;72635;-67
2024/01/04 02:17:00;;;;;;;123.30;47.60;;;;;;;5.03;60.86;98002.21;108200;1254;69929;-65
2024/01/04 02:19:28;;;;;;;118.20;47.70;;;;;;;5.01;60.85;97994.11;108133;1253;71657;-65
2024/01/04 02:21:56;;;;;;;112.80;46.20;;;;;;;4.95;60.95;97995.98;107846;1254;60399;-64
2024/01/04 02:24:23;;;;;;;124.20;45.70;;;;;;;5.02;60.78;97990.98;108225;1253;60779;-67
2024/01/04 02:26:52;;;;;;;106.70;42.30;;;;;;;5.03;60.65;97995.95;108120;1252;72910;-67
2024/01/04 02:29:19;;;;;;;110.50;44.00;;;;;;;4.99;61.04;97993.17;108208;1254;69659;-67
2024/01/04 02:31:48;;;;;;;119.70;45.80;;;;;;;4.97;61.13;97988.23;108114;1251;71768;-67
2024/01/04 02:34:15;;;;;;;90.10;35.40;;;;;;;5.10;60.75;97988.46;108246;1251;60848;-66
2024/01/04 02:36:43;;;;;;;99.80;40.40;;;;;;;5.09;60.83;97992.33;108301;1251;60316;-66
2024/01/04 02:39:11;;;;;;;107.10;41.80;;;;;;;4.99;61.20;97994.23;108277;1251;73747;-66
2024/01/04 02:41:39;;;;;;;96.30;40.80;;;;;;;4.96;61.25;98000.10;108330;1251;69144;-67
2024/01/04 02:44:07;;;;;;;110.90;41.70;;;;;;;4.99;61.07;97999.95;108373;1251;71376;-67
2024/01/04 02:46:38;;;;;;;96.00;39.40;;;;;;;4.91;61.18;98002.60;108278;1251;60456;-67
2024/01/04 02:49:06;;;;;;;96.20;39.70;;;;;;;4.95;61.00;98004.65;108266;1251;60305;-67
2024/01/04 02:51:34;;;;;;;114.50;41.40;;;;;;;4.93;61.15;98004.60;108278;1251;72792;-66
2024/01/04 02:54:02;;;;;;;99.80;39.10;;;;;;;4.85;61.28;98001.68;108300;1251;69606;-66
2024/01/04 02:56:30;;;;;;;95.70;40.30;;;;;;;4.80;61.55;98011.83;108261;1252;71187;-66
2024/01/04 02:58:59;;;;;;;111.70;43.80;;;;;;;4.96;61.02;98011.23;108256;1254;59582;-67
2024/01/04 03:01:26;;;;;;;106.90;40.70;;;;;;;5.01;60.91;98008.04;108197;1251;60342;-67
2024/01/04 03:03:55;;;;;;;101.80;40.60;;;;;;;5.06;60.66;98010.38;108382;1251;72636;-68
2024/01/04 03:06:27;;;;;;;103.40;40.50;;;;;;;5.02;61.00;98011.48;108321;1250;70223;-67
2024/01/04 03:08:54;;;;;;;97.10;39.20;;;;;;;4.86;61.09;98005.80;108279;1251;73343;-66
2024/01/04 03:11:22;;;;;;;115.20;40.80;;;;;;;4.78;61.68;98007.91;108268;1251;60443;-66
2024/01/04 03:13:50;;;;;;;98.10;37.20;;;;;;;4.84;61.40;98010.23;108329;1251;60116;-68
2024/01/04 03:16:19;;;;;;;120.80;44.10;;;;;;;4.92;61.24;98007.78;108327;1256;74899;-65
2024/01/04 03:18:46;;;;;;;112.70;41.10;;;;;;;4.86;61.21;98013.09;108359;1251;70152;-66
2024/01/04 03:21:15;;;;;;;107.70;41.60;;;;;;;4.92;61.09;98012.84;108294;1254;71417;-66
2024/01/04 03:23:43;;;;;;;108.50;43.40;;;;;;;4.89;61.15;98013.66;108281;1251;60923;-65
2024/01/04 03:26:12;;;;;;;115.50;40.70;;;;;;;4.87;61.11;98015.87;108285;1251;60293;-65
2024/01/04 03:28:40;;;;;;;110.40;41.30;;;;;;;4.84;61.16;98018.08;108288;1251;73820;-67
2024/01/04 03:31:07;;;;;;;100.50;38.40;;;;;;;4.63;61.49;98028.09;108245;1254;70236;-67
2024/01/04 03:33:35;;;;;;;101.80;41.70;;;;;;;4.55;61.79;98035.23;108200;1253;72705;-66
2024/01/04 03:36:03;;;;;;;111.00;42.70;;;;;;;4.69;61.62;98036.31;108194;1256;60463;-67
2024/01/04 03:38:31;;;;;;;114.50;42.70;;;;;;;4.73;61.17;98035.08;108197;1252;60357;-65
2024/01/04 03:41:01;;;;;;;118.70;42.70;;;;;;;4.64;61.09;98041.26;108264;1254;72222;-68
2024/01/04 03:43:29;;;;;;;116.60;40.60;;;;;;;4.51;61.46;98043.09;108127;1254;70290;-67
2024/01/04 03:45:56;;;;;;;128.60;41.90;;;;;;;4.36;62.01;98050.68;108138;1254;72918;-67
2024/01/04 03:48:24;;;;;;;120.80;44.30;;;;;;;4.48;61.70;98043.39;108149;1256;60316;-66
2024/01/04 03:50:52;;;;;;;118.10;45.60;;;;;;;4.64;61.29;98039.71;108126;1253;60242;-67
2024/01/04 03:53:19;;;;;;;113.30;42.20;;;;;;;4.62;61.27;98038.04;108130;1253;72627;-65
2024/01/04 03:55:47;;;;;;;119.60;45.20;;;;;;;4.60;61.28;98037.29;108149;1256;69181;-67
2024/01/04 03:58:14;;;;;;;119.90;43.80;;;;;;;4.57;61.54;98039.82;108170;1253;71647;-66
2024/01/04 04:00:42;;;;;;;117.00;43.50;;;;;;;4.48;61.69;98040.77;107424;1254;864030;-67
2024/01/04 04:05:22;;;;;;;121.80;43.70;;;;;;;3.05;67.74;98048.76;104979;1289;601165;-67
2024/01/04 04:07:50;;;;;;;103.10;41.60;;;;;;;4.33;63.22;98044.59;107326;1264;59552;-63
2024/01/04 04:10:18;;;;;;;108.10;42.70;;;;;;;4.54;62.11;98055.78;107331;1263;59994;-64
2024/01/04 04:12:45;;;;;;;130.50;47.90;;;;;;;4.59;62.13;98050.88;107400;1264;72251;-66
2024/01/04 04:15:13;;;;;;;123.80;46.10;;;;;;;4.55;61.95;98049.83;107317;1263;68987;-66
2024/01/04 04:17:40;;;;;;;129.30;47.90;;;;;;;4.42;62.24;98049.71;107329;1267;71707;-67
2024/01/04 04:20:09;;;;;;;145.90;51.00;;;;;;;4.39;62.29;98052.11;107362;1260;117500;-67
2024/01/04 04:22:36;;;;;;;121.50;45.40;;;;;;;4.42;62.09;98062.58;107477;1261;59952;-67
2024/01/04 04:25:04;;;;;;;135.70;47.00;;;;;;;4.36;62.28;98062.16;107423;1261;71928;-67
2024/01/04 04:27:32;;;;;;;144.40;50.60;;;;;;;4.38;62.08;98062.22;107380;1261;70094;-65
2024/01/04 04:29:59;;;;;;;128.00;44.60;;;;;;;4.34;62.11;98067.65;107384;1263;71792;-65
2024/01/04 04:32:27;;;;;;;123.70;44.50;;;;;;;4.31;62.39;98070.05;107370;1262;59682;-64
2024/01/04 04:34:55;;;;;;;119.90;46.20;;;;;;;4.26;62.64;98074.77;107357;1263;59539;-65
2024/01/04 04:37:22;;;;;;;124.60;46.10;;;;;;;4.35;62.45;98077.84;107376;1263;73049;-67
2024/01/04 04:39:50;;;;;;;131.70;44.10;;;;;;;4.29;62.37;98074.78;107410;1262;69340;-66
2024/01/04 04:42:17;;;;;;;124.80;43.10;;;;;;;4.30;62.65;98076.84;107407;1263;71635;-65
2024/01/04 04:44:45;;;;;;;124.40;43.30;;;;;;;4.26;62.71;98072.16;107368;1264;59694;-67
2024/01/04 04:47:12;;;;;;;100.90;39.30;;;;;;;4.33;62.61;98072.00;107493;1266;59511;-64
2024/01/04 04:49:40;;;;;;;111.70;42.00;;;;;;;4.37;62.59;98071.13;107719;1257;73022;-65
2024/01/04 04:52:08;;;;;;;111.60;40.60;;;;;;;4.30;62.82;98069.92;108062;1254;70121;-66
2024/01/04 04:54:35;;;;;;;101.00;36.80;;;;;;;4.30;62.89;98066.42;108118;1253;72721;-66
2024/01/04 04:57:04;;;;;;;107.80;39.40;;;;;;;4.36;62.57;98061.31;108124;1254;60802;-68
2024/01/04 04:59:32;;;;;;;104.40;39.00;;;;;;;4.35;62.50;98057.70;108077;1254;60166;-67
2024/01/04 05:02:00;;;;;;;99.90;36.80;;;;;;;4.33;62.65;98058.98;108104;1253;73018;-66
2024/01/04 05:04:27;;;;;;;111.90;39.70;;;;;;;4.35;62.65;98063.91;107880;1253;69519;-69
2024/01/04 05:06:55;;;;;;;117.40;42.10;;;;;;;4.36;62.31;98065.98;107981;1256;71807;-66
2024/01/04 05:09:23;;;;;;;115.40;40.80;;;;;;;4.39;62.39;98070.03;108106;1253;59655;-67
2024/01/04 05:11:50;;;;;;;121.30;40.80;;;;;;;4.36;62.23;98076.73;108009;1253;59969;-67
2024/01/04 05:14:18;;;;;;;108.10;38.20;;;;;;;4.31;62.31;98081.66;107894;1253;72275;-67
2024/01/04 05:16:45;;;;;;;118.20;41.10;;;;;;;4.19;62.45;98090.87;107910;1254;69996;-65
2024/01/04 05:19:13;;;;;;;119.80;38.50;;;;;;;4.14;62.47;98098.73;107896;1254;71205;-67
2024/01/04 05:21:40;;;;;;;105.50;38.00;;;;;;;4.14;62.59;98104.12;108069;1256;59561;-66
2024/01/04 05:24:08;;;;;;;115.30;42.40;;;;;;;4.09;62.92;98105.58;107903;1253;59499;-67
2024/01/04 05:26:35;;;;;;;117.00;42.60;;;;;;;4.19;62.62;98103.05;107933;1253;71851;-64
2024/01/04 05:29:03;;;;;;;123.40;43.40;;;;;;;4.16;62.67;98110.29;107977;1253;69032;-66
2024/01/04 05:31:30;;;;;;;111.30;43.70;;;;;;;4.18;62.63;98111.07;107925;1253;72656;-66
2024/01/04 05:33:58;;;;;;;105.50;41.60;;;;;;;4.17;62.89;98117.73;108107;1253;61098;-67
2024/01/04 05:36:26;;;;;;;125.90;45.00;;;;;;;4.21;62.61;98122.58;107853;1254;59692;-64
2024/01/04 05:38:53;;;;;;;108.20;41.50;;;;;;;4.19;62.65;98121.29;108016;1254;72800;-65
2024/01/04 05:41:21;;;;;;;119.30;44.70;;;;;;;4.24;62.58;98116.70;108083;1253;68936;-65
2024/01/04 05:43:48;;;;;;;126.20;46.70;;;;;;;4.30;62.22;98120.77;107955;1254;70611;-68
2024/01/04 05:46:16;;;;;;;127.20;46.10;;;;;;;4.24;62.25;98128.70;108084;1254;59471;-66
2024/01/04 05:48:44;;;;;;;133.30;48.40;;;;;;;4.24;62.20;98127.13;108008;1256;59144;-67
2024/01/04 05:51:12;;;;;;;119.30;43.80;;;;;;;4.15;62.43;98127.17;107997;1253;71728;-67
2024/01/04 05:53:40;;;;;;;110.20;41.30;;;;;;;4.13;62.40;98131.42;107934;1253;69741;-67
2024/01/04 05:56:07;;;;;;;121.80;45.70;;;;;;;4.17;62.13;98131.61;108141;1254;71722;-67
2024/01/04 05:58:35;;;;;;;111.80;43.40;;;;;;;4.16;62.27;98131.83;108042;1253;59573;-66
2024/01/04 06:01:02;;;;;;;113.20;42.60;;;;;;;4.19;62.10;98136.74;107995;1254;60068;-64
2024/01/04 06:03:30;;;;;;;110.20;41.80;;;;;;;4.16;62.31;98142.25;107969;1253;73216;-66
2024/01/04 06:05:58;;;;;;;113.20;40.90;;;;;;;4.24;62.10;98152.01;107977;1253;69417;-67
2024/01/04 06:08:25;;;;;;;111.80;41.60;;;;;;;4.31;62.17;98147.00;107994;1253;71374;-67
2024/01/04 06:10:53;;;;;;;112.20;41.70;;;;;;;4.31;62.00;98145.42;107937;1253;60853;-68
2024/01/04 06:13:26;;;;;;;106.00;38.70;;;;;;;4.33;62.09;98147.08;108032;1253;59533;-67
2024/01/04 06:15:54;;;;;;;112.40;41.10;;;;;;;4.38;61.94;98138.33;107982;1253;73065;-67
2024/01/04 06:18:21;;;;;;;106.70;37.70;;;;;;;4.32;61.96;98140.34;108003;1254;68095;-67
2024/01/04 06:20:49;;;;;;;109.30;39.60;;;;;;;4.22;62.06;98142.33;108016;1254;72950;-68
2024/01/04 06:23:17;;;;;;;101.90;37.30;;;;;;;4.12;62.75;98145.02;107987;1257;60887;-68
2024/01/04 06:25:45;;;;;;;96.80;36.80;;;;;;;4.20;62.62;98142.45;107924;1253;59051;-67
2024/01/04 06:28:13;;;;;;;112.60;41.90;;;;;;;4.29;62.41;98145.69;107977;1253;73132;-66
2024/01/04 06:30:40;;;;;;;107.80;38.00;;;;;;;4.34;62.23;98144.08;107972;1254;67862;-67
2024/01/04 06:33:08;;;;;;;107.40;38.30;;;;;;;4.33;62.24;98148.42;107949;1253;70814;-67
2024/01/04 06:35:36;;;;;;;107.20;39.90;;;;;;;4.39;62.20;98148.02;107994;1256;60139;-69
2024/01/04 06:38:07;;;;;;;100.10;38.20;;;;;;;4.38;62.18;98153.30;107938;1254;59670;-67
2024/01/04 06:40:35;;;;;;;103.70;38.90;;;;;;;4.32;62.38;98152.83;108123;1251;73034;-67
2024/01/04 06:43:03;;;;;;;90.10;36.50;;;;;;;4.33;62.32;98152.95;108074;1251;68373;-67
2024/01/04 06:45:31;;;;;;;96.10;36.60;;;;;;;4.32;62.33;98155.83;108206;1251;72936;-66
2024/01/04 06:47:58;;;;;;;103.60;41.30;;;;;;;4.23;62.61;98156.00;108121;1251;60372;-67
2024/01/04 06:50:26;;;;;;;112.60;39.90;;;;;;;4.30;62.24;98158.51;108175;1251;59986;-66
2024/01/04 06:52:54;;;;;;;101.60;38.90;;;;;;;4.24;62.32;98159.61;108192;1251;73075;-68
2024/01/04 06:55:23;;;;;;;104.00;39.70;;;;;;;4.23;62.50;98161.23;108089;1251;69423;-67
2024/01/04 06:57:50;;;;;;;109.60;40.40;;;;;;;4.27;62.36;98161.77;108104;1253;72452;-67
2024/01/04 07:00:18;;;;;;;99.20;38.90;;;;;;;4.25;62.55;98158.54;108086;1255;60062;-65
2024/01/04 07:02:45;;;;;;;100.80;40.30;;;;;;;4.24;62.55;98159.64;108142;1251;58838;-66
2024/01/04 07:05:13;;;;;;;110.00;39.10;;;;;;;4.27;62.19;98161.23;108128;1251;73103;-65
2024/01/04 07:07:41;;;;;;;113.80;40.50;;;;;;;4.27;62.44;98167.15;108191;1251;70105;-66
2024/01/04 07:10:09;;;;;;;115.20;42.70;;;;;;;4.22;62.36;98171.55;108151;1253;72429;-67
2024/01/04 07:12:37;;;;;;;112.80;42.70;;;;;;;4.11;62.46;98172.02;108195;1251;59902;-67
2024/01/04 07:15:05;;;;;;;131.20;48.60;;;;;;;4.10;62.26;98168.05;108109;1251;59411;-65
2024/01/04 07:17:32;;;;;;;107.40;42.70;;;;;;;4.09;62.27;98168.43;108203;1253;73134;-64
2024/01/04 07:20:00;;;;;;;109.90;43.00;;;;;;;4.19;61.97;98171.30;108132;1252;69522;-67
2024/01/04 07:22:28;;;;;;;103.80;40.10;;;;;;;4.29;61.73;98172.96;108144;1251;72879;-66
2024/01/04 07:24:58;;;;;;;95.50;40.10;;;;;;;4.29;61.59;98174.70;108107;1251;60856;-67
2024/01/04 07:27:27;;;;;;;105.30;46.00;;;;;;;4.24;61.50;98174.37;108167;1251;59576;-67
2024/01/04 07:29:58;;;;;;;127.50;56.20;;;;;;;4.16;61.62;98173.67;108242;1251;73106;-65
2024/01/04 07:32:26;;;;;;;111.80;46.70;;;;;;;4.14;61.82;98178.27;108153;1251;69402;-67
2024/01/04 07:34:53;;;;;;;101.20;38.00;;;;;;;4.18;61.74;98172.20;108103;1251;72730;-67
2024/01/04 07:37:35;;;;;;;99.30;39.70;;;;;;;4.20;61.69;98172.85;108246;1251;61844;-67
2024/01/04 07:40:03;;;;;;;90.60;35.60;;;;;;;4.20;61.82;98181.88;108141;1251;59398;-67
2024/01/04 07:42:31;;;;;;;106.60;39.90;;;;;;;4.23;61.79;98178.92;108123;1256;73048;-67
2024/01/04 07:44:58;;;;;;;90.70;36.40;;;;;;;4.28;61.71;98183.95;108197;1251;70286;-67
2024/01/04 07:47:36;;;;;;;107.20;44.30;;;;;;;3.98;62.34;98182.44;108174;1253;72827;-68
2024/01/04 07:50:05;;;;;;;89.20;38.10;;;;;;;4.12;62.18;98184.80;108171;1253;59989;-68
2024/01/04 07:52:33;;;;;;;113.70;43.30;;;;;;;4.19;62.16;98189.20;108254;1251;59209;-67
2024/01/04 07:55:00;;;;;;;118.60;46.90;;;;;;;4.25;62.14;98192.93;108156;1251;73160;-67
2024/01/04 07:57:32;;;;;;;143.70;59.00;;;;;;;4.29;61.99;98189.65;108174;1251;72714;-66
2024/01/04 07:59:59;;;;;;;112.30;46.60;;;;;;;4.26;62.08;98189.95;108215;1253;71519;-67
2024/01/04 08:02:29;;;;;;;94.30;39.40;;;;;;;4.27;61.74;98189.39;108098;1251;59986;-67
2024/01/04 08:04:57;;;;;;;97.60;40.10;;;;;;;4.29;61.66;98193.64;108123;1252;60154;-68
2024/01/04 08:07:25;;;;;;;104.20;40.90;;;;;;;4.15;61.76;98191.25;108068;1253;73045;-67
2024/01/04 08:09:52;;;;;;;103.00;38.70;;;;;;;3.83;62.91;98192.77;108034;1253;68806;-67
2024/01/04 08:12:20;;;;;;;112.50;42.10;;;;;;;3.80;63.03;98188.01;108176;1253;71398;-67
2024/01/04 08:14:48;;;;;;;90.70;37.50;;;;;;;3.78;63.27;98188.27;108185;1252;61178;-68
2024/01/04 08:17:15;;;;;;;105.10;41.10;;;;;;;4.11;62.61;98187.08;108294;1252;59292;-67
2024/01/04 08:19:43;;;;;;;101.80;40.60;;;;;;;4.25;62.31;98185.81;108149;1253;73861;-67
2024/01/04 08:22:11;;;;;;;95.70;36.40;;;;;;;4.30;62.27;98186.45;108217;1253;68944;-67
2024/01/04 08:24:40;;;;;;;96.60;38.60;;;;;;;4.39;62.49;98188.33;108169;1253;72663;-67
2024/01/04 08:27:08;;;;;;;93.90;38.50;;;;;;;4.45;62.68;98188.09;108106;1252;60874;-68
2024/01/04 08:29:36;;;;;;;105.10;41.30;;;;;;;4.60;62.37;98192.31;108120;1253;60706;-67
2024/01/04 08:32:04;;;;;;;101.70;39.50;;;;;;;4.63;62.18;98196.70;108112;1253;72755;-63
2024/01/04 08:34:31;;;;;;;98.80;40.50;;;;;;;4.64;61.93;98200.15;108209;1252;67741;-66
2024/01/04 08:36:59;;;;;;;97.20;39.90;;;;;;;4.61;61.79;98203.90;108232;1252;71503;-67
2024/01/04 08:39:28;;;;;;;87.10;37.90;;;;;;;4.64;61.72;98198.72;108155;1253;60444;-68
2024/01/04 08:41:55;;;;;;;112.40;44.60;;;;;;;4.68;61.44;98198.02;108226;1253;60022;-65
2024/01/04 08:44:23;;;;;;;111.10;43.80;;;;;;;4.77;61.69;98197.45;108070;1252;73103;-67
2024/01/04 08:46:51;;;;;;;115.30;45.90;;;;;;;4.81;61.41;98193.98;108183;1253;71465;-67
2024/01/04 08:49:19;;;;;;;107.00;44.90;;;;;;;4.93;61.15;98193.09;108058;1253;73563;-67
2024/01/04 08:51:47;;;;;;;134.50;55.80;;;;;;;4.95;61.26;98191.45;108230;1253;60553;-66
2024/01/04 08:54:15;;;;;;;130.50;53.80;;;;;;;4.91;61.33;98191.64;108242;1253;59985;-67
2024/01/04 08:56:43;;;;;;;116.80;50.90;;;;;;;5.00;61.32;98191.39;108204;1253;72871;-67
2024/01/04 08:59:10;;;;;;;114.60;45.30;;;;;;;5.09;61.27;98186.99;108199;1252;70090;-68
2024/01/04 09:01:38;;;;;;;117.10;45.00;;;;;;;5.19;60.89;98188.59;108219;1252;71595;-67
2024/01/04 09:04:05;;;;;;;97.40;42.90;;;;;;;5.19;60.88;98194.67;108142;1253;60301;-67
2024/01/04 09:06:34;;;;;;;93.00;40.10;;;;;;;5.15;60.66;98188.61;108125;1253;60445;-68
2024/01/04 09:09:05;;;;;;;79.60;36.10;;;;;;;5.18;60.61;98188.11;108150;1252;73582;-68
2024/01/04 09:11:38;;;;;;;91.40;37.60;;;;;;;5.21;60.42;98190.42;108152;1252;69955;-67
2024/01/04 09:14:11;;;;;;;73.30;33.60;;;;;;;5.19;60.20;98191.73;108192;1253;72436;-67
2024/01/04 09:16:40;;;;;;;83.70;37.90;;;;;;;5.13;60.50;98188.56;108335;1253;59071;-67
2024/01/04 09:19:07;;;;;;;77.80;34.30;;;;;;;5.14;60.21;98184.13;108054;1252;60457;-67
2024/01/04 09:21:35;;;;;;;132.10;57.20;;;;;;;5.04;60.43;98182.17;108181;1253;73737;-67
2024/01/04 09:24:03;;;;;;;114.00;48.90;;;;;;;5.01;60.74;98183.70;108124;1252;70808;-67
2024/01/04 09:26:31;;;;;;;127.30;50.50;;;;;;;5.08;60.79;98182.35;108203;1252;74653;-67
2024/01/04 09:28:59;;;;;;;96.20;41.80;;;;;;;5.13;60.89;98188.56;108380;1253;60287;-67
2024/01/04 09:31:26;;;;;;;88.00;39.40;;;;;;;5.18;60.37;98189.15;108241;1253;60637;-67
2024/01/04 09:33:56;;;;;;;89.00;39.10;;;;;;;5.23;60.42;98192.27;108051;1253;73972;-67
2024/01/04 09:36:23;;;;;;;86.40;38.40;;;;;;;5.24;60.27;98188.36;108171;1253;70318;-68
2024/01/04 09:38:51;;;;;;;82.90;36.90;;;;;;;5.17;60.24;98193.39;108068;1253;72613;-68
2024/01/04 09:41:24;;;;;;;81.20;35.70;;;;;;;5.08;60.46;98190.48;108148;1253;60523;-68
2024/01/04 09:43:56;;;;;;;85.50;38.00;;;;;;;5.03;60.77;98190.73;108087;1253;60424;-67
2024/01/04 09:46:25;;;;;;;80.00;37.10;;;;;;;5.02;60.75;98193.06;108109;1253;74143;-67
2024/01/04 09:48:56;;;;;;;75.60;34.20;;;;;;;5.00;60.93;98189.32;108155;1253;71722;-66
2024/01/04 09:51:28;;;;;;;65.30;29.40;;;;;;;5.05;60.72;98193.77;108049;1254;71845;-66
2024/01/04 09:53:56;;;;;;;59.10;26.80;;;;;;;5.02;60.64;98188.69;108071;1253;60496;-67
2024/01/04 09:56:25;;;;;;;58.50;27.20;;;;;;;5.07;60.56;98192.31;108011;1253;60277;-67
2024/01/04 09:58:53;;;;;;;58.50;27.30;;;;;;;5.03;60.44;98189.34;108024;1253;73819;-68
2024/01/04 10:01:25;;;;;;;68.40;29.50;;;;;;;5.17;60.19;98188.68;108009;1253;69444;-66
2024/01/04 10:03:55;;;;;;;63.90;28.30;;;;;;;5.16;60.10;98184.38;107964;1253;73039;-67
2024/01/04 10:06:30;;;;;;;54.60;24.60;;;;;;;5.21;60.22;98178.42;107747;1253;61313;-66
2024/01/04 10:09:20;;;;;;;57.40;26.90;;;;;;;5.16;60.35;98179.34;107948;1253;60162;-66
2024/01/04 10:11:57;;;;;;;65.50;29.20;;;;;;;5.12;60.41;98179.01;108063;1253;76242;-67
2024/01/04 10:14:26;;;;;;;63.80;29.60;;;;;;;5.02;60.66;98177.57;108098;1258;69192;-66
2024/01/04 10:16:56;;;;;;;65.70;30.30;;;;;;;4.95;61.04;98176.34;108084;1253;71904;-67
2024/01/04 10:19:24;;;;;;;73.50;32.00;;;;;;;5.04;60.99;98176.77;108017;1253;61817;-67
2024/01/04 10:21:52;;;;;;;66.80;31.40;;;;;;;5.10;60.82;98174.75;107958;1253;59057;-67
2024/01/04 10:24:23;;;;;;;79.60;33.10;;;;;;;5.11;60.85;98171.92;108148;1253;72629;-67
2024/01/04 10:26:56;;;;;;;73.10;30.50;;;;;;;5.16;61.30;98168.23;108022;1253;72685;-67
2024/01/04 10:29:25;;;;;;;67.90;30.70;;;;;;;5.20;61.29;98161.62;108010;1254;72948;-68
2024/01/04 10:32:00;;;;;;;72.60;29.80;;;;;;;5.18;61.34;98159.60;108077;1253;60534;-67
2024/01/04 10:34:27;;;;;;;68.60;31.30;;;;;;;5.28;61.20;98157.58;108057;1253;60360;-66
2024/01/04 10:37:12;;;;;;;62.20;29.60;;;;;;;5.38;61.04;98153.63;108056;1253;72934;-66
2024/01/04 10:39:45;;;;;;;71.20;31.80;;;;;;;5.49;60.62;98150.84;108123;1253;69407;-67
2024/01/04 10:42:13;;;;;;;90.80;42.50;;;;;;;5.49;60.72;98157.44;108088;1258;70751;-67
2024/01/04 10:44:43;;;;;;;76.10;35.60;;;;;;;5.54;60.46;98146.08;108164;1256;60264;-67
2024/01/04 10:47:13;;;;;;;79.20;36.50;;;;;;;5.61;60.36;98150.08;108176;1253;61215;-67
2024/01/04 10:49:44;;;;;;;72.30;33.20;;;;;;;5.60;60.54;98152.06;108245;1253;73949;-67
2024/01/04 10:52:15;;;;;;;;;;;;;;;5.64;60.36;98153.78;108242;1252;68962;-66
2024/01/04 10:54:43;;;;;;;71.00;31.60;;;;;;;5.59;60.41;98151.57;108174;1253;72898;-66
2024/01/04 10:57:12;;;;;;;68.50;31.20;;;;;;;5.61;60.44;98153.76;108106;1253;61119;-67
2024/01/04 10:59:43;;;;;;;78.60;33.10;;;;;;;5.71;60.32;98151.89;108141;1253;61184;-66
2024/01/04 11:02:13;;;;;;;78.10;32.60;;;;;;;5.69;60.39;98154.05;108075;1253;76061;-67
2024/01/04 11:04:41;;;;;;;76.70;34.70;;;;;;;5.72;60.47;98150.77;108191;1257;69564;-67
2024/01/04 11:07:09;;;;;;;74.60;34.20;;;;;;;5.72;60.16;98157.77;108054;1253;72155;-66
2024/01/04 11:09:37;;;;;;;75.60;32.60;;;;;;;5.61;60.24;98158.59;108240;1253;60920;-62
2024/01/04 11:12:05;;;;;;;78.50;33.20;;;;;;;5.51;60.45;98157.18;108070;1252;60299;-68
2024/01/04 11:14:32;;;;;;;72.20;33.20;;;;;;;5.44;60.75;98157.71;108093;1253;73245;-66
2024/01/04 11:17:20;;;;;;;68.90;32.40;;;;;;;5.39;60.76;98159.86;108084;1252;71265;-67
2024/01/04 11:20:08;;;;;;;70.40;32.50;;;;;;;5.44;60.64;98157.17;108123;1253;72139;-65